sensor_id;sensor_type;location;lat;lon;timestamp;P1;durP1;ratioP1;P2;durP2;ratioP2
13228;SDS011;6680;53.220;10.402;2022-10-03T00:00:06;6.60;;;2.30;;
13228;SDS011;6680;53.220;10.402;2022-10-03T00:02:52;4.03;;;2.00;;
13228;SDS011;6680;53.220;10.402;2022-10-03T00:05:44;8.37;;;3.30;;
13228;SDS011;6680;53.220;10.402;2022-10-03T00:08:29;4.37;;;2.33;;
13228;SDS011;6680;53.220;10.402;2022-10-03T00:11:18;7.03;;;2.50;;
13228;SDS011;6680;53.220;10.402;2022-10-03T00:13:59;6.50;;;2.63;;
13228;SDS011;6680;53.220;10.402;2022-10-03T00:16:33;9.53;;;2.20;;
13228;SDS011;6680;53.220;10.402;2022-10-03T00:19:06;7.60;;;1.97;;
13228;SDS011;6680;53.220;10.402;2022-10-03T00:21:42;4.67;;;1.80;;
13228;SDS011;6680;53.220;10.402;2022-10-03T00:24:23;4.90;;;2.17;;
13228;SDS011;6680;53.220;10.402;2022-10-03T00:27:01;8.93;;;2.40;;
13228;SDS011;6680;53.220;10.402;2022-10-03T00:32:52;7.67;;;2.30;;
13228;SDS011;6680;53.220;10.402;2022-10-03T00:35:39;4.60;;;2.10;;
13228;SDS011;6680;53.220;10.402;2022-10-03T00:38:21;6.33;;;1.70;;
13228;SDS011;6680;53.220;10.402;2022-10-03T00:41:08;6.77;;;2.30;;
13228;SDS011;6680;53.220;10.402;2022-10-03T00:44:14;5.73;;;2.53;;
13228;SDS011;6680;53.220;10.402;2022-10-03T00:50:05;2.93;;;2.07;;
13228;SDS011;6680;53.220;10.402;2022-10-03T00:52:54;8.03;;;2.13;;
13228;SDS011;6680;53.220;10.402;2022-10-03T00:55:42;5.20;;;2.07;;
13228;SDS011;6680;53.220;10.402;2022-10-03T00:58:33;5.63;;;1.97;;
13228;SDS011;6680;53.220;10.402;2022-10-03T01:01:20;6.17;;;2.33;;
13228;SDS011;6680;53.220;10.402;2022-10-03T01:03:53;9.27;;;2.30;;
13228;SDS011;6680;53.220;10.402;2022-10-03T01:06:35;6.57;;;2.20;;
13228;SDS011;6680;53.220;10.402;2022-10-03T01:09:10;12.60;;;2.27;;
13228;SDS011;6680;53.220;10.402;2022-10-03T01:11:56;9.60;;;2.40;;
13228;SDS011;6680;53.220;10.402;2022-10-03T01:14:52;7.80;;;2.40;;
13228;SDS011;6680;53.220;10.402;2022-10-03T01:17:37;10.07;;;2.33;;
13228;SDS011;6680;53.220;10.402;2022-10-03T01:20:17;5.37;;;2.40;;
13228;SDS011;6680;53.220;10.402;2022-10-03T01:26:17;7.30;;;2.03;;
13228;SDS011;6680;53.220;10.402;2022-10-03T01:28:57;8.50;;;2.53;;
13228;SDS011;6680;53.220;10.402;2022-10-03T01:31:45;4.80;;;1.90;;
13228;SDS011;6680;53.220;10.402;2022-10-03T01:34:19;4.93;;;2.33;;
13228;SDS011;6680;53.220;10.402;2022-10-03T01:36:52;8.10;;;2.00;;
13228;SDS011;6680;53.220;10.402;2022-10-03T01:39:26;5.83;;;2.10;;
13228;SDS011;6680;53.220;10.402;2022-10-03T01:41:57;3.63;;;2.03;;
13228;SDS011;6680;53.220;10.402;2022-10-03T01:44:30;4.50;;;2.20;;
13228;SDS011;6680;53.220;10.402;2022-10-03T01:47:08;4.63;;;1.93;;
13228;SDS011;6680;53.220;10.402;2022-10-03T01:49:45;8.93;;;2.00;;
13228;SDS011;6680;53.220;10.402;2022-10-03T01:52:20;4.60;;;1.93;;
13228;SDS011;6680;53.220;10.402;2022-10-03T01:54:58;5.53;;;1.93;;
13228;SDS011;6680;53.220;10.402;2022-10-03T01:57:32;6.43;;;2.33;;
13228;SDS011;6680;53.220;10.402;2022-10-03T02:00:07;6.40;;;2.30;;
13228;SDS011;6680;53.220;10.402;2022-10-03T02:02:38;5.13;;;1.80;;
13228;SDS011;6680;53.220;10.402;2022-10-03T02:05:10;7.23;;;2.07;;
13228;SDS011;6680;53.220;10.402;2022-10-03T02:07:44;7.27;;;2.10;;
13228;SDS011;6680;53.220;10.402;2022-10-03T02:10:21;5.33;;;2.40;;
13228;SDS011;6680;53.220;10.402;2022-10-03T02:12:55;16.87;;;2.33;;
13228;SDS011;6680;53.220;10.402;2022-10-03T02:15:30;4.57;;;1.83;;
13228;SDS011;6680;53.220;10.402;2022-10-03T02:18:00;4.50;;;1.63;;
13228;SDS011;6680;53.220;10.402;2022-10-03T02:20:40;4.60;;;2.00;;
13228;SDS011;6680;53.220;10.402;2022-10-03T02:23:20;8.03;;;2.47;;
13228;SDS011;6680;53.220;10.402;2022-10-03T02:25:50;5.57;;;1.77;;
13228;SDS011;6680;53.220;10.402;2022-10-03T02:28:51;5.10;;;1.93;;
13228;SDS011;6680;53.220;10.402;2022-10-03T02:31:37;4.73;;;2.20;;
13228;SDS011;6680;53.220;10.402;2022-10-03T02:34:24;3.30;;;2.17;;
13228;SDS011;6680;53.220;10.402;2022-10-03T02:40:19;11.60;;;2.83;;
13228;SDS011;6680;53.220;10.402;2022-10-03T02:43:14;9.43;;;2.80;;
13228;SDS011;6680;53.220;10.402;2022-10-03T02:46:21;6.33;;;2.50;;
13228;SDS011;6680;53.220;10.402;2022-10-03T02:55:28;6.33;;;2.57;;
13228;SDS011;6680;53.220;10.402;2022-10-03T02:58:21;6.17;;;1.90;;
13228;SDS011;6680;53.220;10.402;2022-10-03T03:01:40;9.30;;;2.07;;
13228;SDS011;6680;53.220;10.402;2022-10-03T03:04:45;5.93;;;2.00;;
13228;SDS011;6680;53.220;10.402;2022-10-03T03:07:38;6.87;;;2.27;;
13228;SDS011;6680;53.220;10.402;2022-10-03T03:10:28;4.37;;;2.30;;
13228;SDS011;6680;53.220;10.402;2022-10-03T03:13:17;5.80;;;1.70;;
13228;SDS011;6680;53.220;10.402;2022-10-03T03:16:08;5.30;;;2.10;;
13228;SDS011;6680;53.220;10.402;2022-10-03T03:19:06;7.30;;;2.67;;
13228;SDS011;6680;53.220;10.402;2022-10-03T03:21:43;3.70;;;1.60;;
13228;SDS011;6680;53.220;10.402;2022-10-03T03:24:25;8.30;;;2.00;;
13228;SDS011;6680;53.220;10.402;2022-10-03T03:27:25;6.07;;;1.90;;
13228;SDS011;6680;53.220;10.402;2022-10-03T03:30:08;6.13;;;2.07;;
13228;SDS011;6680;53.220;10.402;2022-10-03T03:32:42;7.20;;;1.83;;
13228;SDS011;6680;53.220;10.402;2022-10-03T03:35:24;4.50;;;2.80;;
13228;SDS011;6680;53.220;10.402;2022-10-03T03:38:01;8.57;;;2.50;;
13228;SDS011;6680;53.220;10.402;2022-10-03T03:40:39;14.23;;;1.93;;
13228;SDS011;6680;53.220;10.402;2022-10-03T03:43:16;6.03;;;1.73;;
13228;SDS011;6680;53.220;10.402;2022-10-03T03:46:04;5.93;;;1.60;;
13228;SDS011;6680;53.220;10.402;2022-10-03T03:51:48;3.27;;;1.80;;
13228;SDS011;6680;53.220;10.402;2022-10-03T03:54:34;4.00;;;1.60;;
13228;SDS011;6680;53.220;10.402;2022-10-03T03:57:41;4.50;;;1.53;;
13228;SDS011;6680;53.220;10.402;2022-10-03T04:00:17;4.47;;;2.10;;
13228;SDS011;6680;53.220;10.402;2022-10-03T04:02:50;5.50;;;1.73;;
13228;SDS011;6680;53.220;10.402;2022-10-03T04:05:30;8.83;;;2.27;;
13228;SDS011;6680;53.220;10.402;2022-10-03T04:08:11;5.70;;;1.73;;
13228;SDS011;6680;53.220;10.402;2022-10-03T04:10:58;7.67;;;1.70;;
13228;SDS011;6680;53.220;10.402;2022-10-03T04:13:44;4.13;;;1.87;;
13228;SDS011;6680;53.220;10.402;2022-10-03T04:16:30;3.93;;;1.33;;
13228;SDS011;6680;53.220;10.402;2022-10-03T04:19:30;8.27;;;2.00;;
13228;SDS011;6680;53.220;10.402;2022-10-03T04:22:07;5.77;;;1.90;;
13228;SDS011;6680;53.220;10.402;2022-10-03T04:27:46;4.90;;;2.37;;
13228;SDS011;6680;53.220;10.402;2022-10-03T04:30:32;4.40;;;1.80;;
13228;SDS011;6680;53.220;10.402;2022-10-03T04:33:08;5.50;;;1.80;;
13228;SDS011;6680;53.220;10.402;2022-10-03T04:38:53;6.80;;;2.23;;
13228;SDS011;6680;53.220;10.402;2022-10-03T04:41:32;3.87;;;1.67;;
13228;SDS011;6680;53.220;10.402;2022-10-03T04:44:08;6.23;;;1.93;;
13228;SDS011;6680;53.220;10.402;2022-10-03T04:46:56;4.90;;;1.97;;
13228;SDS011;6680;53.220;10.402;2022-10-03T04:49:28;6.13;;;1.97;;
13228;SDS011;6680;53.220;10.402;2022-10-03T04:52:03;6.07;;;1.73;;
13228;SDS011;6680;53.220;10.402;2022-10-03T04:54:44;4.07;;;2.23;;
13228;SDS011;6680;53.220;10.402;2022-10-03T04:57:20;3.27;;;1.63;;
13228;SDS011;6680;53.220;10.402;2022-10-03T04:59:54;8.33;;;2.27;;
13228;SDS011;6680;53.220;10.402;2022-10-03T05:02:30;6.23;;;1.47;;
13228;SDS011;6680;53.220;10.402;2022-10-03T05:05:11;2.43;;;1.50;;
13228;SDS011;6680;53.220;10.402;2022-10-03T05:07:49;2.67;;;1.63;;
13228;SDS011;6680;53.220;10.402;2022-10-03T05:10:25;6.37;;;1.87;;
13228;SDS011;6680;53.220;10.402;2022-10-03T05:13:07;1.87;;;1.37;;
13228;SDS011;6680;53.220;10.402;2022-10-03T05:15:41;2.13;;;1.50;;
13228;SDS011;6680;53.220;10.402;2022-10-03T05:18:21;6.07;;;2.13;;
13228;SDS011;6680;53.220;10.402;2022-10-03T05:20:54;5.33;;;1.70;;
13228;SDS011;6680;53.220;10.402;2022-10-03T05:23:27;6.67;;;2.20;;
13228;SDS011;6680;53.220;10.402;2022-10-03T05:26:02;4.70;;;1.50;;
13228;SDS011;6680;53.220;10.402;2022-10-03T05:28:40;3.00;;;1.97;;
13228;SDS011;6680;53.220;10.402;2022-10-03T05:34:11;7.63;;;1.70;;
13228;SDS011;6680;53.220;10.402;2022-10-03T05:37:01;9.67;;;2.27;;
13228;SDS011;6680;53.220;10.402;2022-10-03T05:39:44;6.00;;;1.73;;
13228;SDS011;6680;53.220;10.402;2022-10-03T05:42:30;7.70;;;2.53;;
13228;SDS011;6680;53.220;10.402;2022-10-03T05:45:03;4.57;;;2.20;;
13228;SDS011;6680;53.220;10.402;2022-10-03T05:47:48;2.83;;;1.70;;
13228;SDS011;6680;53.220;10.402;2022-10-03T05:50:40;6.60;;;1.73;;
13228;SDS011;6680;53.220;10.402;2022-10-03T05:56:25;10.90;;;2.17;;
13228;SDS011;6680;53.220;10.402;2022-10-03T05:59:33;4.20;;;1.60;;
13228;SDS011;6680;53.220;10.402;2022-10-03T06:02:19;5.00;;;1.83;;
13228;SDS011;6680;53.220;10.402;2022-10-03T06:05:10;3.23;;;2.03;;
13228;SDS011;6680;53.220;10.402;2022-10-03T06:07:44;9.67;;;2.30;;
13228;SDS011;6680;53.220;10.402;2022-10-03T06:10:30;4.93;;;2.10;;
13228;SDS011;6680;53.220;10.402;2022-10-03T06:13:12;5.57;;;2.20;;
13228;SDS011;6680;53.220;10.402;2022-10-03T06:18:43;6.00;;;2.30;;
13228;SDS011;6680;53.220;10.402;2022-10-03T06:21:26;6.67;;;2.50;;
13228;SDS011;6680;53.220;10.402;2022-10-03T06:24:18;8.07;;;2.00;;
13228;SDS011;6680;53.220;10.402;2022-10-03T06:27:12;9.87;;;2.60;;
13228;SDS011;6680;53.220;10.402;2022-10-03T06:30:10;8.23;;;2.97;;
13228;SDS011;6680;53.220;10.402;2022-10-03T06:32:54;5.90;;;2.00;;
13228;SDS011;6680;53.220;10.402;2022-10-03T06:35:55;3.43;;;2.03;;
13228;SDS011;6680;53.220;10.402;2022-10-03T06:45:16;7.60;;;2.37;;
13228;SDS011;6680;53.220;10.402;2022-10-03T06:48:14;6.67;;;2.43;;
13228;SDS011;6680;53.220;10.402;2022-10-03T06:50:52;7.23;;;2.10;;
13228;SDS011;6680;53.220;10.402;2022-10-03T06:53:30;8.43;;;2.20;;
13228;SDS011;6680;53.220;10.402;2022-10-03T06:56:22;9.17;;;2.67;;
13228;SDS011;6680;53.220;10.402;2022-10-03T06:59:17;7.83;;;2.40;;
13228;SDS011;6680;53.220;10.402;2022-10-03T07:05:12;3.90;;;2.30;;
13228;SDS011;6680;53.220;10.402;2022-10-03T07:11:12;7.67;;;2.33;;
13228;SDS011;6680;53.220;10.402;2022-10-03T07:14:02;9.17;;;2.47;;
13228;SDS011;6680;53.220;10.402;2022-10-03T07:19:49;7.33;;;2.47;;
13228;SDS011;6680;53.220;10.402;2022-10-03T07:31:52;10.03;;;2.30;;
13228;SDS011;6680;53.220;10.402;2022-10-03T07:34:48;4.37;;;1.93;;
13228;SDS011;6680;53.220;10.402;2022-10-03T07:37:35;5.23;;;2.70;;
13228;SDS011;6680;53.220;10.402;2022-10-03T07:40:58;7.03;;;2.40;;
13228;SDS011;6680;53.220;10.402;2022-10-03T07:43:46;4.33;;;2.47;;
13228;SDS011;6680;53.220;10.402;2022-10-03T07:49:27;5.40;;;1.97;;
13228;SDS011;6680;53.220;10.402;2022-10-03T07:52:19;8.07;;;2.87;;
13228;SDS011;6680;53.220;10.402;2022-10-03T07:55:13;4.00;;;1.97;;
13228;SDS011;6680;53.220;10.402;2022-10-03T07:58:10;4.37;;;1.80;;
13228;SDS011;6680;53.220;10.402;2022-10-03T08:00:57;3.43;;;2.20;;
13228;SDS011;6680;53.220;10.402;2022-10-03T08:03:51;4.90;;;2.00;;
13228;SDS011;6680;53.220;10.402;2022-10-03T08:06:36;10.97;;;2.70;;
13228;SDS011;6680;53.220;10.402;2022-10-03T08:09:18;4.63;;;2.10;;
13228;SDS011;6680;53.220;10.402;2022-10-03T08:12:10;7.93;;;2.83;;
13228;SDS011;6680;53.220;10.402;2022-10-03T08:15:01;1.77;;;1.67;;
13228;SDS011;6680;53.220;10.402;2022-10-03T08:17:41;2.73;;;2.17;;
13228;SDS011;6680;53.220;10.402;2022-10-03T08:23:28;2.10;;;1.90;;
13228;SDS011;6680;53.220;10.402;2022-10-03T08:26:17;4.90;;;1.83;;
13228;SDS011;6680;53.220;10.402;2022-10-03T08:28:51;6.70;;;1.47;;
13228;SDS011;6680;53.220;10.402;2022-10-03T08:44:17;7.57;;;2.33;;
13228;SDS011;6680;53.220;10.402;2022-10-03T08:47:15;5.13;;;1.80;;
13228;SDS011;6680;53.220;10.402;2022-10-03T08:50:20;1.60;;;1.33;;
13228;SDS011;6680;53.220;10.402;2022-10-03T08:53:07;4.50;;;1.60;;
13228;SDS011;6680;53.220;10.402;2022-10-03T08:55:55;5.13;;;2.20;;
13228;SDS011;6680;53.220;10.402;2022-10-03T08:58:45;5.67;;;1.90;;
13228;SDS011;6680;53.220;10.402;2022-10-03T09:01:46;5.47;;;1.70;;
13228;SDS011;6680;53.220;10.402;2022-10-03T09:04:54;3.20;;;1.40;;
13228;SDS011;6680;53.220;10.402;2022-10-03T09:07:43;4.73;;;1.70;;
13228;SDS011;6680;53.220;10.402;2022-10-03T09:10:46;5.60;;;1.90;;
13228;SDS011;6680;53.220;10.402;2022-10-03T09:13:37;3.80;;;1.80;;
13228;SDS011;6680;53.220;10.402;2022-10-03T09:16:39;5.00;;;1.87;;
13228;SDS011;6680;53.220;10.402;2022-10-03T09:22:37;8.33;;;1.83;;
13228;SDS011;6680;53.220;10.402;2022-10-03T09:25:40;2.17;;;1.53;;
13228;SDS011;6680;53.220;10.402;2022-10-03T09:28:24;6.60;;;2.17;;
13228;SDS011;6680;53.220;10.402;2022-10-03T09:31:12;3.87;;;1.73;;
13228;SDS011;6680;53.220;10.402;2022-10-03T09:34:08;5.37;;;1.97;;
13228;SDS011;6680;53.220;10.402;2022-10-03T09:36:58;3.03;;;2.43;;
13228;SDS011;6680;53.220;10.402;2022-10-03T09:49:11;5.20;;;1.90;;
13228;SDS011;6680;53.220;10.402;2022-10-03T09:51:58;2.53;;;1.50;;
13228;SDS011;6680;53.220;10.402;2022-10-03T09:54:52;4.30;;;1.90;;
13228;SDS011;6680;53.220;10.402;2022-10-03T09:57:33;6.53;;;2.13;;
13228;SDS011;6680;53.220;10.402;2022-10-03T10:00:18;3.83;;;2.37;;
13228;SDS011;6680;53.220;10.402;2022-10-03T10:02:55;3.63;;;1.63;;
13228;SDS011;6680;53.220;10.402;2022-10-03T10:05:54;4.67;;;1.70;;
13228;SDS011;6680;53.220;10.402;2022-10-03T10:08:50;11.60;;;2.30;;
13228;SDS011;6680;53.220;10.402;2022-10-03T10:12:00;5.47;;;2.27;;
13228;SDS011;6680;53.220;10.402;2022-10-03T10:15:02;5.03;;;2.23;;
13228;SDS011;6680;53.220;10.402;2022-10-03T10:21:02;4.50;;;1.77;;
13228;SDS011;6680;53.220;10.402;2022-10-03T10:23:53;2.57;;;1.70;;
13228;SDS011;6680;53.220;10.402;2022-10-03T10:35:44;3.17;;;1.57;;
13228;SDS011;6680;53.220;10.402;2022-10-03T10:38:23;4.30;;;1.57;;
13228;SDS011;6680;53.220;10.402;2022-10-03T10:44:12;5.53;;;1.87;;
13228;SDS011;6680;53.220;10.402;2022-10-03T10:47:47;2.83;;;1.60;;
13228;SDS011;6680;53.220;10.402;2022-10-03T10:59:57;4.07;;;2.20;;
13228;SDS011;6680;53.220;10.402;2022-10-03T11:05:41;4.70;;;1.90;;
13228;SDS011;6680;53.220;10.402;2022-10-03T11:08:37;5.13;;;1.93;;
13228;SDS011;6680;53.220;10.402;2022-10-03T11:11:47;5.27;;;1.70;;
13228;SDS011;6680;53.220;10.402;2022-10-03T11:15:04;2.87;;;1.80;;
13228;SDS011;6680;53.220;10.402;2022-10-03T11:18:06;9.27;;;1.77;;
13228;SDS011;6680;53.220;10.402;2022-10-03T11:21:17;5.10;;;1.90;;
13228;SDS011;6680;53.220;10.402;2022-10-03T11:37:06;3.80;;;1.60;;
13228;SDS011;6680;53.220;10.402;2022-10-03T11:39:42;2.20;;;1.67;;
13228;SDS011;6680;53.220;10.402;2022-10-03T11:42:18;4.23;;;1.87;;
13228;SDS011;6680;53.220;10.402;2022-10-03T11:44:57;4.97;;;2.03;;
13228;SDS011;6680;53.220;10.402;2022-10-03T11:47:30;2.43;;;1.60;;
13228;SDS011;6680;53.220;10.402;2022-10-03T11:50:26;6.60;;;1.73;;
13228;SDS011;6680;53.220;10.402;2022-10-03T11:56:11;4.83;;;2.20;;
13228;SDS011;6680;53.220;10.402;2022-10-03T11:58:53;4.70;;;1.80;;
13228;SDS011;6680;53.220;10.402;2022-10-03T12:01:35;2.40;;;1.53;;
13228;SDS011;6680;53.220;10.402;2022-10-03T12:04:15;3.33;;;2.00;;
13228;SDS011;6680;53.220;10.402;2022-10-03T12:06:50;4.20;;;1.60;;
13228;SDS011;6680;53.220;10.402;2022-10-03T12:09:44;2.47;;;1.80;;
13228;SDS011;6680;53.220;10.402;2022-10-03T12:12:23;6.37;;;2.03;;
13228;SDS011;6680;53.220;10.402;2022-10-03T12:14:57;3.20;;;1.77;;
13228;SDS011;6680;53.220;10.402;2022-10-03T12:17:31;6.07;;;1.83;;
13228;SDS011;6680;53.220;10.402;2022-10-03T12:20:03;3.13;;;1.50;;
13228;SDS011;6680;53.220;10.402;2022-10-03T12:22:41;3.60;;;1.70;;
13228;SDS011;6680;53.220;10.402;2022-10-03T12:25:18;2.40;;;1.63;;
13228;SDS011;6680;53.220;10.402;2022-10-03T12:27:49;1.77;;;1.37;;
13228;SDS011;6680;53.220;10.402;2022-10-03T12:30:32;4.80;;;1.73;;
13228;SDS011;6680;53.220;10.402;2022-10-03T12:33:14;8.67;;;1.77;;
13228;SDS011;6680;53.220;10.402;2022-10-03T12:36:08;5.50;;;2.40;;
13228;SDS011;6680;53.220;10.402;2022-10-03T12:38:42;5.03;;;1.93;;
13228;SDS011;6680;53.220;10.402;2022-10-03T12:41:18;4.10;;;1.60;;
13228;SDS011;6680;53.220;10.402;2022-10-03T12:43:55;3.90;;;1.67;;
13228;SDS011;6680;53.220;10.402;2022-10-03T12:46:36;6.17;;;1.80;;
13228;SDS011;6680;53.220;10.402;2022-10-03T12:49:12;4.27;;;1.90;;
13228;SDS011;6680;53.220;10.402;2022-10-03T12:51:55;3.70;;;1.53;;
13228;SDS011;6680;53.220;10.402;2022-10-03T12:54:29;2.57;;;1.30;;
13228;SDS011;6680;53.220;10.402;2022-10-03T13:00:05;4.40;;;1.70;;
13228;SDS011;6680;53.220;10.402;2022-10-03T13:02:39;4.40;;;1.50;;
13228;SDS011;6680;53.220;10.402;2022-10-03T13:05:22;3.97;;;1.63;;
13228;SDS011;6680;53.220;10.402;2022-10-03T13:08:02;3.60;;;1.30;;
13228;SDS011;6680;53.220;10.402;2022-10-03T13:10:40;3.80;;;1.70;;
13228;SDS011;6680;53.220;10.402;2022-10-03T13:13:14;5.20;;;1.40;;
13228;SDS011;6680;53.220;10.402;2022-10-03T13:16:02;5.40;;;1.40;;
13228;SDS011;6680;53.220;10.402;2022-10-03T13:18:45;3.23;;;1.40;;
13228;SDS011;6680;53.220;10.402;2022-10-03T13:21:18;3.47;;;2.40;;
13228;SDS011;6680;53.220;10.402;2022-10-03T13:23:52;6.50;;;2.03;;
13228;SDS011;6680;53.220;10.402;2022-10-03T13:26:24;6.67;;;1.50;;
13228;SDS011;6680;53.220;10.402;2022-10-03T13:29:08;2.23;;;1.60;;
13228;SDS011;6680;53.220;10.402;2022-10-03T13:31:46;4.73;;;2.17;;
13228;SDS011;6680;53.220;10.402;2022-10-03T13:34:21;2.70;;;1.40;;
13228;SDS011;6680;53.220;10.402;2022-10-03T13:36:52;3.60;;;1.50;;
13228;SDS011;6680;53.220;10.402;2022-10-03T13:39:24;3.43;;;1.70;;
13228;SDS011;6680;53.220;10.402;2022-10-03T13:41:55;1.43;;;1.33;;
13228;SDS011;6680;53.220;10.402;2022-10-03T13:44:33;2.67;;;1.70;;
13228;SDS011;6680;53.220;10.402;2022-10-03T13:47:04;2.60;;;1.70;;
13228;SDS011;6680;53.220;10.402;2022-10-03T13:49:51;5.20;;;1.80;;
13228;SDS011;6680;53.220;10.402;2022-10-03T13:52:22;4.20;;;1.60;;
13228;SDS011;6680;53.220;10.402;2022-10-03T13:55:11;5.97;;;2.00;;
13228;SDS011;6680;53.220;10.402;2022-10-03T13:57:46;2.50;;;1.97;;
13228;SDS011;6680;53.220;10.402;2022-10-03T14:00:22;4.67;;;1.77;;
13228;SDS011;6680;53.220;10.402;2022-10-03T14:02:54;5.23;;;1.80;;
13228;SDS011;6680;53.220;10.402;2022-10-03T14:05:33;3.93;;;1.40;;
13228;SDS011;6680;53.220;10.402;2022-10-03T14:08:11;5.63;;;1.40;;
13228;SDS011;6680;53.220;10.402;2022-10-03T14:10:59;6.03;;;1.87;;
13228;SDS011;6680;53.220;10.402;2022-10-03T14:13:38;3.00;;;1.60;;
13228;SDS011;6680;53.220;10.402;2022-10-03T14:16:17;3.60;;;1.33;;
13228;SDS011;6680;53.220;10.402;2022-10-03T14:18:53;4.37;;;1.70;;
13228;SDS011;6680;53.220;10.402;2022-10-03T14:21:29;8.50;;;1.77;;
13228;SDS011;6680;53.220;10.402;2022-10-03T14:24:11;2.63;;;1.50;;
13228;SDS011;6680;53.220;10.402;2022-10-03T14:26:49;5.67;;;1.93;;
13228;SDS011;6680;53.220;10.402;2022-10-03T14:29:23;3.80;;;1.60;;
13228;SDS011;6680;53.220;10.402;2022-10-03T14:32:00;1.97;;;1.37;;
13228;SDS011;6680;53.220;10.402;2022-10-03T14:34:36;3.60;;;1.77;;
13228;SDS011;6680;53.220;10.402;2022-10-03T14:37:13;2.33;;;1.60;;
13228;SDS011;6680;53.220;10.402;2022-10-03T14:39:48;4.57;;;1.90;;
13228;SDS011;6680;53.220;10.402;2022-10-03T14:45:22;3.53;;;2.23;;
13228;SDS011;6680;53.220;10.402;2022-10-03T14:47:53;1.87;;;1.73;;
13228;SDS011;6680;53.220;10.402;2022-10-03T14:50:24;7.27;;;2.00;;
13228;SDS011;6680;53.220;10.402;2022-10-03T14:52:54;4.57;;;1.63;;
13228;SDS011;6680;53.220;10.402;2022-10-03T14:55:27;9.27;;;1.73;;
13228;SDS011;6680;53.220;10.402;2022-10-03T14:57:59;4.47;;;1.90;;
13228;SDS011;6680;53.220;10.402;2022-10-03T15:00:35;5.20;;;2.30;;
13228;SDS011;6680;53.220;10.402;2022-10-03T15:09:01;6.40;;;2.33;;
13228;SDS011;6680;53.220;10.402;2022-10-03T15:11:35;10.80;;;1.93;;
13228;SDS011;6680;53.220;10.402;2022-10-03T15:14:13;5.30;;;1.60;;
13228;SDS011;6680;53.220;10.402;2022-10-03T15:16:43;3.03;;;1.77;;
13228;SDS011;6680;53.220;10.402;2022-10-03T15:19:13;4.70;;;1.63;;
13228;SDS011;6680;53.220;10.402;2022-10-03T15:21:43;1.80;;;1.70;;
13228;SDS011;6680;53.220;10.402;2022-10-03T15:24:16;7.83;;;1.87;;
13228;SDS011;6680;53.220;10.402;2022-10-03T15:26:46;4.37;;;2.20;;
13228;SDS011;6680;53.220;10.402;2022-10-03T15:29:20;5.70;;;1.90;;
13228;SDS011;6680;53.220;10.402;2022-10-03T15:31:49;5.13;;;2.40;;
13228;SDS011;6680;53.220;10.402;2022-10-03T15:34:19;1.77;;;1.50;;
13228;SDS011;6680;53.220;10.402;2022-10-03T15:36:50;3.80;;;1.70;;
13228;SDS011;6680;53.220;10.402;2022-10-03T15:39:23;3.93;;;2.13;;
13228;SDS011;6680;53.220;10.402;2022-10-03T15:41:53;6.43;;;2.10;;
13228;SDS011;6680;53.220;10.402;2022-10-03T15:44:24;5.70;;;2.30;;
13228;SDS011;6680;53.220;10.402;2022-10-03T15:46:57;5.77;;;2.27;;
13228;SDS011;6680;53.220;10.402;2022-10-03T15:49:29;5.43;;;3.33;;
13228;SDS011;6680;53.220;10.402;2022-10-03T15:52:04;4.33;;;2.30;;
13228;SDS011;6680;53.220;10.402;2022-10-03T15:54:37;4.37;;;2.30;;
13228;SDS011;6680;53.220;10.402;2022-10-03T15:57:04;5.23;;;2.30;;
13228;SDS011;6680;53.220;10.402;2022-10-03T15:59:34;3.33;;;1.97;;
13228;SDS011;6680;53.220;10.402;2022-10-03T16:02:05;6.17;;;2.70;;
13228;SDS011;6680;53.220;10.402;2022-10-03T16:04:40;3.57;;;1.97;;
13228;SDS011;6680;53.220;10.402;2022-10-03T16:07:10;4.00;;;2.57;;
13228;SDS011;6680;53.220;10.402;2022-10-03T16:09:49;9.57;;;2.60;;
13228;SDS011;6680;53.220;10.402;2022-10-03T16:12:32;4.23;;;2.83;;
13228;SDS011;6680;53.220;10.402;2022-10-03T16:15:19;2.50;;;1.97;;
13228;SDS011;6680;53.220;10.402;2022-10-03T16:17:58;4.50;;;1.77;;
13228;SDS011;6680;53.220;10.402;2022-10-03T16:20:28;2.87;;;2.00;;
13228;SDS011;6680;53.220;10.402;2022-10-03T16:23:01;6.10;;;2.00;;
13228;SDS011;6680;53.220;10.402;2022-10-03T16:25:38;9.07;;;2.60;;
13228;SDS011;6680;53.220;10.402;2022-10-03T16:28:11;4.53;;;1.90;;
13228;SDS011;6680;53.220;10.402;2022-10-03T16:30:44;4.43;;;2.60;;
13228;SDS011;6680;53.220;10.402;2022-10-03T16:33:15;3.97;;;2.33;;
13228;SDS011;6680;53.220;10.402;2022-10-03T16:35:48;2.47;;;2.00;;
13228;SDS011;6680;53.220;10.402;2022-10-03T16:38:19;6.53;;;2.23;;
13228;SDS011;6680;53.220;10.402;2022-10-03T16:40:49;6.97;;;2.10;;
13228;SDS011;6680;53.220;10.402;2022-10-03T16:43:18;4.77;;;2.67;;
13228;SDS011;6680;53.220;10.402;2022-10-03T16:45:47;7.17;;;2.07;;
13228;SDS011;6680;53.220;10.402;2022-10-03T16:48:18;4.53;;;2.30;;
13228;SDS011;6680;53.220;10.402;2022-10-03T16:51:05;3.97;;;2.03;;
13228;SDS011;6680;53.220;10.402;2022-10-03T16:53:41;3.70;;;2.00;;
13228;SDS011;6680;53.220;10.402;2022-10-03T16:56:10;9.17;;;1.90;;
13228;SDS011;6680;53.220;10.402;2022-10-03T16:58:42;4.67;;;1.70;;
13228;SDS011;6680;53.220;10.402;2022-10-03T17:01:14;2.27;;;1.87;;
13228;SDS011;6680;53.220;10.402;2022-10-03T17:03:51;4.67;;;2.00;;
13228;SDS011;6680;53.220;10.402;2022-10-03T17:06:24;4.40;;;1.83;;
13228;SDS011;6680;53.220;10.402;2022-10-03T17:08:55;7.20;;;2.23;;
13228;SDS011;6680;53.220;10.402;2022-10-03T17:11:27;4.33;;;1.87;;
13228;SDS011;6680;53.220;10.402;2022-10-03T17:13:58;6.10;;;2.37;;
13228;SDS011;6680;53.220;10.402;2022-10-03T17:16:33;5.93;;;1.87;;
13228;SDS011;6680;53.220;10.402;2022-10-03T17:19:15;4.33;;;1.83;;
13228;SDS011;6680;53.220;10.402;2022-10-03T17:21:49;2.20;;;2.00;;
13228;SDS011;6680;53.220;10.402;2022-10-03T17:24:21;3.07;;;2.10;;
13228;SDS011;6680;53.220;10.402;2022-10-03T17:26:58;3.33;;;2.00;;
13228;SDS011;6680;53.220;10.402;2022-10-03T17:29:41;6.73;;;2.00;;
13228;SDS011;6680;53.220;10.402;2022-10-03T17:32:16;4.00;;;1.93;;
13228;SDS011;6680;53.220;10.402;2022-10-03T17:34:49;3.57;;;2.30;;
13228;SDS011;6680;53.220;10.402;2022-10-03T17:37:30;4.37;;;2.20;;
13228;SDS011;6680;53.220;10.402;2022-10-03T17:40:17;17.73;;;7.30;;
13228;SDS011;6680;53.220;10.402;2022-10-03T17:42:50;11.13;;;5.10;;
13228;SDS011;6680;53.220;10.402;2022-10-03T17:48:11;20.33;;;8.23;;
13228;SDS011;6680;53.220;10.402;2022-10-03T17:50:48;11.30;;;5.57;;
13228;SDS011;6680;53.220;10.402;2022-10-03T17:53:20;9.00;;;5.33;;
13228;SDS011;6680;53.220;10.402;2022-10-03T17:55:51;8.93;;;3.10;;
13228;SDS011;6680;53.220;10.402;2022-10-03T17:58:21;6.93;;;3.07;;
13228;SDS011;6680;53.220;10.402;2022-10-03T18:00:55;6.03;;;3.50;;
13228;SDS011;6680;53.220;10.402;2022-10-03T18:03:27;4.60;;;3.03;;
13228;SDS011;6680;53.220;10.402;2022-10-03T18:06:01;6.70;;;2.80;;
13228;SDS011;6680;53.220;10.402;2022-10-03T18:08:49;10.03;;;3.13;;
13228;SDS011;6680;53.220;10.402;2022-10-03T18:11:19;4.93;;;3.00;;
13228;SDS011;6680;53.220;10.402;2022-10-03T18:13:49;8.30;;;3.13;;
13228;SDS011;6680;53.220;10.402;2022-10-03T18:16:23;5.07;;;3.03;;
13228;SDS011;6680;53.220;10.402;2022-10-03T18:19:03;4.47;;;3.20;;
13228;SDS011;6680;53.220;10.402;2022-10-03T18:21:40;10.57;;;3.37;;
13228;SDS011;6680;53.220;10.402;2022-10-03T18:24:28;6.60;;;2.77;;
13228;SDS011;6680;53.220;10.402;2022-10-03T18:27:07;4.23;;;2.60;;
13228;SDS011;6680;53.220;10.402;2022-10-03T18:29:54;2.90;;;2.60;;
13228;SDS011;6680;53.220;10.402;2022-10-03T18:32:25;5.27;;;2.53;;
13228;SDS011;6680;53.220;10.402;2022-10-03T18:34:59;5.87;;;3.10;;
13228;SDS011;6680;53.220;10.402;2022-10-03T18:37:50;4.90;;;3.23;;
13228;SDS011;6680;53.220;10.402;2022-10-03T18:40:24;5.23;;;3.27;;
13228;SDS011;6680;53.220;10.402;2022-10-03T18:42:52;6.20;;;3.23;;
13228;SDS011;6680;53.220;10.402;2022-10-03T18:45:20;8.07;;;4.20;;